Time;durP1;ratioP1;P1;durP2;ratioP2;P2;SDS_P1;SDS_P2;PMS_P1;PMS_P2;Temp;Humidity;BMP_temperature;BMP_pressure;BME280_temperature;BME280_humidity;BME280_pressure;Samples;Min_cycle;Max_cycle;Signal;HPM_P1;HPM_P2
2022/08/25 00:01:44;;;;;;;28.80;27.30;;;21.10;75.40;;;;;;5007772;28;20484;-68
2022/08/25 00:04:14;;;;;;;29.73;28.30;;;21.10;75.60;;;;;;5003749;28;20469;-68
2022/08/25 00:06:42;;;;;;;31.73;29.93;;;21.10;75.60;;;;;;5005169;28;20460;-68
2022/08/25 00:09:11;;;;;;;31.57;30.17;;;21.10;75.70;;;;;;5001187;28;20548;-68
2022/08/25 00:11:40;;;;;;;29.73;28.33;;;21.00;75.90;;;;;;5007316;28;20484;-69
2022/08/25 00:14:10;;;;;;;30.03;28.63;;;21.00;76.00;;;;;;5003594;28;20465;-69
2022/08/25 00:16:38;;;;;;;29.40;27.80;;;20.90;76.20;;;;;;5001962;28;21263;-68
2022/08/25 00:19:09;;;;;;;30.17;28.67;;;20.80;76.40;;;;;;5004362;28;20548;-69
2022/08/25 00:21:36;;;;;;;29.03;27.70;;;20.80;76.70;;;;;;5001233;28;20477;-68
2022/08/25 00:24:04;;;;;;;29.70;28.37;;;20.80;76.70;;;;;;5003180;28;20454;-70
2022/08/25 00:26:31;;;;;;;29.63;28.33;;;20.70;76.70;;;;;;5001500;28;20484;-69
2022/08/25 00:28:59;;;;;;;30.37;28.97;;;20.70;76.90;;;;;;4994628;28;20469;-69
2022/08/25 00:31:26;;;;;;;28.93;27.53;;;20.70;76.90;;;;;;5002495;28;20490;-68
2022/08/25 00:33:53;;;;;;;28.30;26.83;;;20.60;77.20;;;;;;5006241;28;21539;-70
2022/08/25 00:36:21;;;;;;;29.57;28.07;;;20.60;77.20;;;;;;5009098;28;20572;-68
2022/08/25 00:38:49;;;;;;;30.50;29.00;;;20.60;77.40;;;;;;5006208;28;21288;-69
2022/08/25 00:41:19;;;;;;;29.03;27.73;;;20.50;77.60;;;;;;5008120;28;20483;-68
2022/08/25 00:43:50;;;;;;;30.80;29.40;;;20.40;78.00;;;;;;5006982;28;20491;-70
2022/08/25 00:46:21;;;;;;;29.77;28.30;;;20.40;78.00;;;;;;5006953;28;20453;-68
2022/08/25 00:48:53;;;;;;;30.03;28.43;;;20.40;78.00;;;;;;5008014;28;20464;-68
2022/08/25 00:51:30;;;;;;;30.40;29.00;;;20.40;78.00;;;;;;5000936;28;20481;-68
2022/08/25 00:53:57;;;;;;;29.70;28.30;;;20.50;78.00;;;;;;5004922;28;20497;-68
2022/08/25 00:56:25;;;;;;;31.50;30.00;;;20.40;78.10;;;;;;5005912;28;20487;-68
2022/08/25 00:58:52;;;;;;;31.73;30.23;;;20.40;78.10;;;;;;5004737;28;20453;-68
2022/08/25 01:01:21;;;;;;;29.80;28.40;;;20.40;78.20;;;;;;5007320;28;20477;-68
2022/08/25 01:03:48;;;;;;;28.30;26.80;;;20.30;78.20;;;;;;5004731;28;20548;-69
2022/08/25 01:06:15;;;;;;;28.30;26.90;;;20.30;78.40;;;;;;5005582;28;20457;-69
2022/08/25 01:08:42;;;;;;;28.20;26.90;;;20.30;78.40;;;;;;5006773;28;20460;-68
2022/08/25 01:11:10;;;;;;;28.60;27.00;;;20.20;78.70;;;;;;5009733;28;20921;-66
2022/08/25 01:13:42;;;;;;;29.70;28.30;;;20.20;78.80;;;;;;5007022;28;20462;-66
2022/08/25 01:16:09;;;;;;;30.03;28.53;;;20.20;78.60;;;;;;5005694;28;20486;-66
2022/08/25 01:18:47;;;;;;;30.00;28.60;;;20.20;78.60;;;;;;5004896;28;20460;-66
2022/08/25 01:21:17;;;;;;;31.10;29.60;;;20.20;78.70;;;;;;5010072;28;20519;-66
2022/08/25 01:23:44;;;;;;;30.37;28.80;;;20.10;79.10;;;;;;5005032;28;20461;-65
2022/08/25 01:26:15;;;;;;;30.93;29.47;;;20.10;79.30;;;;;;5006992;28;20643;-66
2022/08/25 01:31:26;;;;;;;31.13;29.57;;;20.10;79.20;;;;;;5000395;28;20565;-66
2022/08/25 01:33:53;;;;;;;32.07;30.53;;;20.00;79.50;;;;;;5005901;28;20472;-66
2022/08/25 01:36:22;;;;;;;30.70;29.30;;;20.00;79.60;;;;;;5007124;28;20507;-66
2022/08/25 01:38:50;;;;;;;30.50;29.13;;;19.90;79.80;;;;;;5005220;28;20459;-66
2022/08/25 01:41:21;;;;;;;32.80;31.30;;;19.90;80.00;;;;;;5005877;28;20473;-66
2022/08/25 01:43:48;;;;;;;31.43;30.03;;;19.80;80.20;;;;;;5005166;28;20549;-66
2022/08/25 01:46:15;;;;;;;31.33;29.90;;;19.80;80.10;;;;;;5002149;28;20452;-66
2022/08/25 01:48:42;;;;;;;31.10;29.60;;;19.80;80.30;;;;;;5008185;28;20460;-66
2022/08/25 01:51:08;;;;;;;30.60;29.20;;;19.80;80.40;;;;;;5006082;28;20483;-66
2022/08/25 01:53:37;;;;;;;29.50;28.10;;;19.80;80.20;;;;;;5005169;28;20822;-66
2022/08/25 01:56:10;;;;;;;29.47;28.07;;;19.80;80.40;;;;;;5005558;28;20591;-66
2022/08/25 01:58:39;;;;;;;30.43;29.03;;;19.80;80.50;;;;;;5000235;28;20463;-66
2022/08/25 02:01:10;;;;;;;31.43;29.93;;;19.70;80.40;;;;;;5008603;28;20481;-65
2022/08/25 02:03:38;;;;;;;30.50;29.00;;;19.70;80.70;;;;;;5004514;28;20954;-66
2022/08/25 02:06:06;;;;;;;30.80;29.40;;;19.70;80.50;;;;;;5006027;28;20457;-66
2022/08/25 02:08:38;;;;;;;30.47;29.07;;;19.70;80.70;;;;;;5003260;28;20467;-66
2022/08/25 02:11:05;;;;;;;31.17;29.60;;;19.60;80.80;;;;;;5000628;28;20829;-66
2022/08/25 02:13:32;;;;;;;31.00;29.50;;;19.70;80.80;;;;;;5006949;28;20457;-66
2022/08/25 02:16:00;;;;;;;39.13;37.33;;;19.60;80.80;;;;;;5005367;28;20993;-66
2022/08/25 02:18:27;;;;;;;31.03;29.37;;;19.70;80.70;;;;;;5005231;28;20467;-66
2022/08/25 02:20:54;;;;;;;33.13;31.63;;;19.60;81.10;;;;;;5006164;28;20578;-66
2022/08/25 02:23:21;;;;;;;36.33;34.73;;;19.60;81.10;;;;;;5007511;28;20512;-66
2022/08/25 02:25:50;;;;;;;34.77;33.17;;;19.50;81.40;;;;;;5008364;28;20996;-66
2022/08/25 02:28:17;;;;;;;32.10;30.60;;;19.40;81.70;;;;;;5004709;28;20471;-68
2022/08/25 02:30:45;;;;;;;32.20;30.57;;;19.40;81.90;;;;;;5004215;28;20486;-69
2022/08/25 02:33:12;;;;;;;30.27;28.87;;;19.30;82.20;;;;;;5002945;28;20493;-68
2022/08/25 02:35:39;;;;;;;33.43;31.93;;;19.30;82.20;;;;;;5009027;28;20478;-68
2022/08/25 02:38:06;;;;;;;43.40;41.37;;;19.30;82.40;;;;;;5000114;28;20567;-68
2022/08/25 02:40:33;;;;;;;39.33;37.30;;;19.20;82.60;;;;;;5003578;28;20467;-68
2022/08/25 02:43:02;;;;;;;29.50;28.10;;;19.20;82.70;;;;;;5007747;28;20547;-68
2022/08/25 02:45:29;;;;;;;30.90;29.40;;;19.20;82.80;;;;;;5004865;28;20574;-68
2022/08/25 02:47:56;;;;;;;32.53;30.93;;;19.20;82.80;;;;;;5004014;28;20557;-68
2022/08/25 02:50:23;;;;;;;31.33;29.60;;;19.20;82.70;;;;;;5005872;28;20469;-68
2022/08/25 02:52:51;;;;;;;30.10;28.60;;;19.20;82.70;;;;;;5007136;28;21191;-68
2022/08/25 02:55:19;;;;;;;35.53;33.80;;;19.20;82.70;;;;;;5007464;28;21032;-68
2022/08/25 02:57:47;;;;;;;34.60;32.73;;;19.20;82.70;;;;;;5002220;28;20914;-68
2022/08/25 03:00:16;;;;;;;38.17;36.23;;;19.20;82.80;;;;;;5003630;28;20550;-68
2022/08/25 03:02:45;;;;;;;28.40;27.07;;;19.10;82.90;;;;;;5000106;28;20569;-68
2022/08/25 03:05:14;;;;;;;46.43;44.10;;;19.10;83.00;;;;;;4998504;28;20476;-68
2022/08/25 03:07:42;;;;;;;35.27;33.57;;;19.10;83.10;;;;;;5002735;28;20529;-69
2022/08/25 03:10:12;;;;;;;30.70;29.20;;;19.00;83.10;;;;;;5000411;28;20791;-68
2022/08/25 03:12:40;;;;;;;39.73;37.60;;;19.00;83.20;;;;;;5005384;28;21071;-68
2022/08/25 03:15:08;;;;;;;55.40;52.70;;;19.00;83.20;;;;;;5005050;28;20475;-70
2022/08/25 03:17:36;;;;;;;35.37;33.77;;;19.00;83.10;;;;;;5003740;28;20484;-67
2022/08/25 03:20:04;;;;;;;30.43;29.03;;;19.00;83.10;;;;;;5007078;28;20462;-68
2022/08/25 03:22:31;;;;;;;32.63;31.03;;;19.00;83.00;;;;;;5006266;28;20478;-66
2022/08/25 03:26:52;;;;;;;50.73;48.13;;;19.00;83.10;;;;;;5008066;28;20468;-66
2022/08/25 03:27:45;;;;;;;44.23;42.13;;;19.00;83.20;;;;;;4996041;28;20450;-66
2022/08/25 03:30:12;;;;;;;38.97;37.10;;;19.00;83.30;;;;;;5002231;28;20474;-66
2022/08/25 03:32:41;;;;;;;58.23;55.43;;;18.90;83.80;;;;;;5000760;28;20565;-66
2022/08/25 03:35:09;;;;;;;35.90;34.20;;;18.80;84.00;;;;;;5006934;28;20458;-70
2022/08/25 03:37:37;;;;;;;39.90;38.00;;;18.80;84.00;;;;;;5005171;28;20473;-66
2022/08/25 03:40:06;;;;;;;30.20;28.70;;;18.80;84.00;;;;;;5009208;28;20454;-65
2022/08/25 03:42:33;;;;;;;74.93;71.73;;;18.80;83.90;;;;;;5003085;28;20482;-66
2022/08/25 03:45:02;;;;;;;48.63;46.33;;;18.90;83.90;;;;;;5006656;28;20549;-66
2022/08/25 03:47:29;;;;;;;35.17;33.57;;;18.80;83.60;;;;;;5002706;28;20562;-66
2022/08/25 03:49:57;;;;;;;37.10;35.30;;;18.80;83.90;;;;;;5008122;28;20465;-66
2022/08/25 03:52:24;;;;;;;30.60;29.20;;;18.80;83.90;;;;;;5001587;28;20690;-66
2022/08/25 03:54:51;;;;;;;46.17;44.00;;;18.80;84.00;;;;;;5008198;28;21043;-66
2022/08/25 03:57:19;;;;;;;67.90;64.73;;;18.80;84.10;;;;;;5005382;28;20585;-66
2022/08/25 03:59:46;;;;;;;35.17;33.47;;;18.70;84.20;;;;;;5007316;28;20513;-65
2022/08/25 04:02:14;;;;;;;40.60;38.60;;;18.70;84.40;;;;;;5003484;28;20518;-65
2022/08/25 04:04:41;;;;;;;39.43;37.53;;;18.70;84.30;;;;;;5009792;28;20543;-66
2022/08/25 04:07:11;;;;;;;57.33;54.53;;;18.60;84.30;;;;;;5009626;28;20950;-66
2022/08/25 04:09:38;;;;;;;47.63;45.30;;;18.70;84.50;;;;;;5007882;28;20455;-66
2022/08/25 04:12:05;;;;;;;46.27;43.97;;;18.70;84.40;;;;;;5006613;28;20481;-65
2022/08/25 04:14:32;;;;;;;45.23;43.00;;;18.70;84.40;;;;;;5010098;28;20462;-66
2022/08/25 04:16:59;;;;;;;42.17;40.17;;;18.60;84.40;;;;;;5008651;28;21016;-66
2022/08/25 04:19:26;;;;;;;50.23;47.37;;;18.60;84.50;;;;;;5009361;28;20494;-66
2022/08/25 04:21:53;;;;;;;45.70;43.53;;;18.60;84.40;;;;;;5007255;28;20488;-66
2022/08/25 04:24:22;;;;;;;34.63;33.03;;;18.60;84.50;;;;;;5010121;28;20461;-66
2022/08/25 04:26:51;;;;;;;46.97;44.57;;;18.70;84.40;;;;;;5007447;28;20941;-66
2022/08/25 04:29:20;;;;;;;37.33;35.67;;;18.70;84.10;;;;;;4998840;28;20465;-66
2022/08/25 04:31:48;;;;;;;40.70;38.53;;;18.60;84.40;;;;;;5005557;28;21006;-66
2022/08/25 04:34:16;;;;;;;37.10;35.30;;;18.60;84.60;;;;;;5010972;28;20963;-66
2022/08/25 04:36:43;;;;;;;34.23;32.63;;;18.50;84.70;;;;;;5004161;28;20576;-66
2022/08/25 04:39:10;;;;;;;51.53;49.07;;;18.50;84.90;;;;;;4998237;28;20473;-66
2022/08/25 04:41:39;;;;;;;38.07;36.23;;;18.50;84.90;;;;;;5001669;28;20556;-67
2022/08/25 04:44:06;;;;;;;34.10;32.50;;;18.50;84.90;;;;;;5010029;28;20469;-69
2022/08/25 04:46:35;;;;;;;50.37;47.90;;;18.50;85.00;;;;;;5008053;28;20544;-72
2022/08/25 04:49:03;;;;;;;40.60;38.70;;;18.50;85.10;;;;;;5006947;28;20505;-70
2022/08/25 04:51:33;;;;;;;39.75;37.55;;;18.50;85.00;;;;;;5007361;28;20499;-69
2022/08/25 04:54:01;;;;;;;34.90;33.20;;;18.70;84.70;;;;;;5006040;28;20223;-68
2022/08/25 04:56:29;;;;;;;39.87;37.87;;;18.70;84.40;;;;;;5008647;28;20489;-71
2022/08/25 04:59:02;;;;;;;33.57;31.93;;;18.70;84.30;;;;;;5001939;28;20518;-68
2022/08/25 05:01:30;;;;;;;38.43;36.63;;;18.70;84.50;;;;;;5005965;28;20891;-70
2022/08/25 05:03:59;;;;;;;33.83;32.23;;;18.70;84.30;;;;;;5009641;28;20558;-68
2022/08/25 05:06:27;;;;;;;36.47;34.27;;;18.70;84.30;;;;;;5009920;28;20462;-68
2022/08/25 05:08:54;;;;;;;38.77;36.57;;;18.70;84.30;;;;;;5007833;28;20461;-70
2022/08/25 05:11:22;;;;;;;36.00;34.30;;;18.70;84.40;;;;;;5007946;28;21235;-71
2022/08/25 05:13:50;;;;;;;32.03;30.33;;;18.70;84.60;;;;;;5002034;28;20467;-69
2022/08/25 05:16:19;;;;;;;50.97;48.47;;;18.70;84.40;;;;;;5007806;28;20508;-68
2022/08/25 05:18:47;;;;;;;48.67;46.10;;;18.70;84.60;;;;;;5009770;28;20894;-68
2022/08/25 05:21:16;;;;;;;51.80;49.40;;;18.70;84.60;;;;;;5002428;28;20482;-66
2022/08/25 05:23:44;;;;;;;37.23;35.50;;;18.70;84.50;;;;;;5008751;28;20549;-66
2022/08/25 05:26:13;;;;;;;41.87;39.80;;;18.80;84.10;;;;;;5008839;28;20511;-67
2022/08/25 05:28:41;;;;;;;38.80;36.90;;;18.90;83.90;;;;;;5009349;28;20868;-67
2022/08/25 05:31:10;;;;;;;42.43;40.43;;;19.00;83.40;;;;;;5002193;28;20583;-67
2022/08/25 05:33:40;;;;;;;56.93;54.00;;;19.10;83.10;;;;;;5001715;28;20517;-66
2022/08/25 05:36:08;;;;;;;45.37;43.00;;;19.20;82.80;;;;;;5006421;28;20844;-66
2022/08/25 05:38:37;;;;;;;37.13;35.23;;;19.30;82.40;;;;;;5001717;28;20838;-66
2022/08/25 05:41:06;;;;;;;40.33;38.22;;;19.30;82.40;;;;;;5004741;28;20468;-67
2022/08/25 05:43:34;;;;;;;50.83;48.37;;;19.50;82.10;;;;;;5007482;28;20284;-72
2022/08/25 05:46:01;;;;;;;38.27;36.30;;;19.60;81.40;;;;;;5004394;28;20463;-71
2022/08/25 05:48:28;;;;;;;40.60;38.67;;;19.70;81.20;;;;;;5005697;28;20612;-72
2022/08/25 05:50:58;;;;;;;49.50;47.00;;;19.80;80.80;;;;;;5006129;28;20482;-73
2022/08/25 05:53:27;;;;;;;52.30;49.50;;;19.80;80.60;;;;;;5008673;28;20459;-72
2022/08/25 05:55:56;;;;;;;33.63;31.93;;;19.80;80.60;;;;;;5003053;28;20881;-71
2022/08/25 05:58:24;;;;;;;42.20;39.90;;;19.70;80.80;;;;;;5006874;28;20494;-71
2022/08/25 06:00:51;;;;;;;48.97;46.30;;;19.80;80.80;;;;;;5004968;28;20801;-71
2022/08/25 06:03:17;;;;;;;46.73;44.17;;;19.90;80.50;;;;;;5002483;28;20480;-76
2022/08/25 06:05:45;;;;;;;35.90;34.20;;;20.00;80.30;;;;;;5009701;28;20542;-73
2022/08/25 06:08:13;;;;;;;39.17;37.00;;;20.10;79.90;;;;;;5007349;28;20484;-77
2022/08/25 06:10:40;;;;;;;57.40;54.60;;;20.20;79.70;;;;;;5006510;28;20468;-75
2022/08/25 06:13:08;;;;;;;39.67;37.67;;;20.30;79.30;;;;;;5007172;28;21180;-72
2022/08/25 06:15:35;;;;;;;43.17;41.10;;;20.50;79.00;;;;;;5010667;28;21073;-73
2022/08/25 06:18:02;;;;;;;37.90;36.20;;;20.60;78.50;;;;;;5004602;28;20477;-72
2022/08/25 06:20:31;;;;;;;53.77;51.17;;;20.60;78.40;;;;;;5000719;28;21053;-71
2022/08/25 06:22:58;;;;;;;43.03;40.73;;;20.70;78.30;;;;;;5007864;28;20463;-71
2022/08/25 06:25:31;;;;;;;45.73;43.47;;;20.90;77.80;;;;;;5007867;28;20560;-70
2022/08/25 06:27:58;;;;;;;38.57;36.57;;;21.00;77.30;;;;;;5009793;28;20492;-71
2022/08/25 06:30:28;;;;;;;51.23;48.53;;;21.10;77.10;;;;;;5000052;28;20473;-70
2022/08/25 06:32:55;;;;;;;41.80;39.67;;;21.10;77.00;;;;;;5003431;28;20527;-71
2022/08/25 06:35:23;;;;;;;44.93;42.87;;;21.30;76.60;;;;;;4996303;28;20892;-72
2022/08/25 06:37:50;;;;;;;42.20;40.10;;;21.50;76.00;;;;;;5000306;28;20828;-74
2022/08/25 06:40:17;;;;;;;39.30;37.07;;;21.60;75.60;;;;;;5006450;28;20487;-71
2022/08/25 06:42:48;;;;;;;42.70;40.73;;;21.70;75.30;;;;;;5006534;28;21030;-71
2022/08/25 06:45:15;;;;;;;44.33;41.93;;;21.90;75.10;;;;;;5006784;28;20461;-72
2022/08/25 06:47:42;;;;;;;54.23;51.60;;;21.90;74.80;;;;;;5008179;28;20455;-71
2022/08/25 06:50:10;;;;;;;47.63;44.83;;;22.00;74.40;;;;;;5005305;28;20457;-71
2022/08/25 06:52:37;;;;;;;54.10;51.20;;;22.20;74.20;;;;;;5005521;28;20483;-72
2022/08/25 06:55:05;;;;;;;39.63;37.03;;;22.30;73.80;;;;;;5009992;28;20519;-71
2022/08/25 06:57:34;;;;;;;48.47;46.00;;;22.30;74.00;;;;;;5007352;28;20477;-71
2022/08/25 07:00:03;;;;;;;47.93;45.40;;;22.40;73.40;;;;;;5007178;28;20469;-71
2022/08/25 07:02:30;;;;;;;45.07;42.60;;;22.50;73.30;;;;;;5003609;28;20568;-71
2022/08/25 07:04:57;;;;;;;55.47;52.47;;;22.50;74.10;;;;;;5005870;28;20547;-70
2022/08/25 07:07:24;;;;;;;53.37;50.57;;;22.60;73.50;;;;;;5005274;28;20489;-71
2022/08/25 07:09:51;;;;;;;49.13;46.53;;;22.60;73.10;;;;;;5004834;28;20548;-71
2022/08/25 07:12:18;;;;;;;46.10;43.43;;;22.80;72.80;;;;;;5008281;28;20535;-70
2022/08/25 07:14:45;;;;;;;43.73;41.40;;;23.00;72.10;;;;;;5008275;28;20457;-70
2022/08/25 07:17:13;;;;;;;50.90;48.13;;;23.00;72.10;;;;;;5007247;28;20481;-71
2022/08/25 07:19:40;;;;;;;52.40;49.60;;;23.00;72.20;;;;;;5006351;28;20489;-71
2022/08/25 07:22:07;;;;;;;45.30;42.80;;;23.00;72.20;;;;;;4997352;28;20555;-73
2022/08/25 07:24:34;;;;;;;42.07;39.57;;;23.30;71.70;;;;;;4996863;28;20461;-71
2022/08/25 07:27:01;;;;;;;41.67;39.40;;;23.30;71.50;;;;;;5008099;28;20469;-71
2022/08/25 07:29:31;;;;;;;56.10;52.93;;;23.30;71.90;;;;;;4996606;28;20469;-72
2022/08/25 07:31:58;;;;;;;45.50;43.20;;;23.40;71.40;;;;;;5001610;28;20473;-72
2022/08/25 07:37:14;;;;;;;49.73;46.93;;;23.50;71.20;;;;;;5000996;28;20495;-71
2022/08/25 07:39:41;;;;;;;53.60;50.80;;;23.60;71.30;;;;;;5005848;28;20557;-72
2022/08/25 07:42:09;;;;;;;42.57;40.27;;;23.40;71.50;;;;;;5003188;28;20472;-69
2022/08/25 07:44:35;;;;;;;46.90;44.40;;;23.50;71.60;;;;;;5000912;28;20550;-69
2022/08/25 07:47:03;;;;;;;50.70;48.10;;;23.60;71.10;;;;;;5002350;28;20475;-70
2022/08/25 07:49:32;;;;;;;52.23;49.70;;;23.80;70.40;;;;;;4999753;28;20451;-69
2022/08/25 07:51:58;;;;;;;46.17;43.63;;;23.80;70.20;;;;;;5003298;28;20475;-69
2022/08/25 07:54:26;;;;;;;46.97;44.67;;;23.80;70.20;;;;;;5008023;28;20468;-69
2022/08/25 07:56:53;;;;;;;46.23;43.70;;;23.90;70.30;;;;;;5004716;28;20540;-68
2022/08/25 07:59:20;;;;;;;57.30;54.30;;;24.00;69.70;;;;;;5005525;28;20459;-69
2022/08/25 08:01:47;;;;;;;55.63;52.67;;;24.10;69.10;;;;;;5005815;28;20499;-69
2022/08/25 08:04:14;;;;;;;45.30;42.80;;;24.30;68.90;;;;;;5007155;28;21279;-69
2022/08/25 08:06:44;;;;;;;56.20;52.80;;;24.40;68.20;;;;;;5007833;28;20548;-68
2022/08/25 08:09:13;;;;;;;51.30;48.50;;;24.40;68.10;;;;;;5006741;28;20465;-68
2022/08/25 08:11:43;;;;;;;58.50;55.30;;;24.40;68.10;;;;;;5007825;28;21074;-68
2022/08/25 08:14:10;;;;;;;44.93;42.73;;;24.40;68.20;;;;;;5002614;28;20471;-69
2022/08/25 08:16:38;;;;;;;51.20;48.60;;;24.60;67.80;;;;;;5011202;28;21535;-68
2022/08/25 08:19:05;;;;;;;45.20;42.80;;;24.80;67.50;;;;;;5005221;28;20540;-68
2022/08/25 08:21:35;;;;;;;44.20;41.77;;;24.90;66.60;;;;;;5001981;28;20508;-68
2022/08/25 08:24:04;;;;;;;43.13;40.87;;;25.00;66.70;;;;;;5009356;28;20464;-69
2022/08/25 08:26:31;;;;;;;42.80;40.70;;;25.10;66.20;;;;;;5005968;28;20460;-69
2022/08/25 08:28:59;;;;;;;54.23;51.47;;;24.90;66.70;;;;;;4999603;28;20526;-68
2022/08/25 08:31:27;;;;;;;46.23;43.93;;;25.10;66.40;;;;;;4993024;28;21002;-69
2022/08/25 08:33:58;;;;;;;44.20;42.03;;;25.10;66.70;;;;;;5007316;28;20495;-68
2022/08/25 08:36:28;;;;;;;48.07;45.30;;;25.10;66.20;;;;;;5009171;28;20659;-69
2022/08/25 08:38:54;;;;;;;42.47;40.37;;;25.20;66.20;;;;;;5003664;28;20491;-68
2022/08/25 08:44:39;;;;;;;46.57;44.10;;;25.20;65.80;;;;;;4995155;28;20592;-68
2022/08/25 08:47:15;;;;;;;51.67;49.07;;;25.30;65.70;;;;;;5004920;28;20560;-69
2022/08/25 08:49:51;;;;;;;50.90;48.40;;;25.40;65.40;;;;;;5002909;28;20488;-70
2022/08/25 08:52:22;;;;;;;50.60;48.00;;;25.40;65.40;;;;;;5003642;28;20477;-68
2022/08/25 08:54:55;;;;;;;44.53;42.43;;;25.40;65.20;;;;;;5000796;28;20501;-68
2022/08/25 08:57:28;;;;;;;42.37;40.27;;;25.30;65.30;;;;;;5005838;28;20998;-69
2022/08/25 09:00:00;;;;;;;39.53;37.63;;;25.40;65.50;;;;;;5005669;28;21018;-67
2022/08/25 09:02:33;;;;;;;57.33;54.33;;;25.60;64.80;;;;;;5005161;28;20485;-67
2022/08/25 09:05:03;;;;;;;42.77;40.67;;;25.70;64.50;;;;;;5008030;28;20470;-69
2022/08/25 09:07:35;;;;;;;44.77;42.57;;;25.80;64.10;;;;;;5006390;28;20557;-67
2022/08/25 09:10:04;;;;;;;48.73;46.33;;;25.80;64.10;;;;;;5006182;28;20470;-68
2022/08/25 09:12:39;;;;;;;48.90;46.40;;;25.80;63.80;;;;;;5007227;28;20480;-68
2022/08/25 09:15:15;;;;;;;42.60;40.30;;;25.90;64.00;;;;;;5009278;28;20457;-69
2022/08/25 09:18:05;;;;;;;52.73;49.93;;;26.10;63.40;;;;;;5005560;28;20480;-69
2022/08/25 09:21:01;;;;;;;50.13;47.63;;;26.20;63.00;;;;;;5005845;28;20960;-68
2022/08/25 09:23:40;;;;;;;45.33;43.20;;;26.30;62.60;;;;;;5006007;28;20454;-69
2022/08/25 09:26:26;;;;;;;52.80;50.20;;;26.20;62.40;;;;;;5005495;28;20989;-69
2022/08/25 09:29:02;;;;;;;49.63;47.20;;;26.30;62.00;;;;;;4961423;28;1138139;-68
2022/08/25 09:31:32;;;;;;;46.67;44.40;;;26.50;61.90;;;;;;5004099;28;20564;-68
2022/08/25 09:34:03;;;;;;;49.67;47.30;;;26.50;62.00;;;;;;5003407;28;20536;-68
2022/08/25 09:36:30;;;;;;;40.87;38.77;;;26.50;61.10;;;;;;5008103;28;20551;-69
2022/08/25 09:38:57;;;;;;;42.83;40.80;;;26.70;60.80;;;;;;5007550;28;21018;-69
2022/08/25 09:41:46;;;;;;;54.50;51.80;;;26.70;60.30;;;;;;5008794;28;21172;-68
2022/08/25 09:44:21;;;;;;;41.90;39.90;;;26.70;60.20;;;;;;5005234;28;20464;-69
2022/08/25 09:47:01;;;;;;;56.47;53.67;;;26.70;60.60;;;;;;5007157;28;20471;-68
2022/08/25 09:49:37;;;;;;;48.30;45.70;;;26.80;60.60;;;;;;5005993;28;20462;-68
2022/08/25 09:52:31;;;;;;;39.57;37.37;;;27.00;60.10;;;;;;5007477;28;20477;-68
2022/08/25 09:55:01;;;;;;;56.23;53.37;;;27.10;59.80;;;;;;4999343;28;22437;-75
2022/08/25 09:57:34;;;;;;;51.03;48.40;;;27.10;59.50;;;;;;4999327;28;20561;-70
2022/08/25 10:00:16;;;;;;;49.07;46.67;;;27.30;59.10;;;;;;5002946;28;20461;-71
2022/08/25 10:02:44;;;;;;;49.53;47.17;;;27.30;59.20;;;;;;4999987;28;20486;-70
2022/08/25 10:05:23;;;;;;;41.50;39.40;;;27.30;59.30;;;;;;5005657;28;20458;-70
2022/08/25 10:07:54;;;;;;;40.70;38.60;;;27.50;58.80;;;;;;5008079;28;20477;-72
2022/08/25 10:10:29;;;;;;;42.07;39.80;;;27.50;58.30;;;;;;4999408;28;20465;-72
2022/08/25 10:12:59;;;;;;;42.30;40.23;;;27.50;58.50;;;;;;5006471;28;20582;-71
2022/08/25 10:15:30;;;;;;;45.40;43.00;;;27.50;58.60;;;;;;5005132;28;20554;-71
2022/08/25 10:18:18;;;;;;;46.13;43.90;;;27.70;58.20;;;;;;4994143;28;20482;-67
2022/08/25 10:21:01;;;;;;;41.50;39.47;;;27.80;57.70;;;;;;5000668;28;20567;-67
2022/08/25 10:23:29;;;;;;;48.00;45.63;;;27.90;57.40;;;;;;5000576;28;20979;-67
2022/08/25 10:26:01;;;;;;;41.47;39.37;;;27.70;57.10;;;;;;5009492;28;20469;-67
2022/08/25 10:28:37;;;;;;;44.13;41.93;;;27.80;56.50;;;;;;5004047;28;20533;-68
2022/08/25 10:31:15;;;;;;;50.17;47.13;;;27.90;56.80;;;;;;4989764;28;20581;-67
2022/08/25 10:33:55;;;;;;;50.67;48.07;;;28.20;56.40;;;;;;5008112;28;20456;-67
2022/08/25 10:36:26;;;;;;;58.83;55.93;;;28.30;55.30;;;;;;5005830;28;20482;-67
2022/08/25 10:38:57;;;;;;;43.43;41.33;;;28.30;55.30;;;;;;4997173;28;20592;-67
2022/08/25 10:41:48;;;;;;;37.20;35.40;;;28.30;55.20;;;;;;5007271;28;20491;-67
2022/08/25 10:47:34;;;;;;;42.90;40.80;;;28.50;54.70;;;;;;5004077;28;20898;-65
2022/08/25 10:50:05;;;;;;;42.17;40.00;;;28.60;54.70;;;;;;4999848;28;20458;-66
2022/08/25 10:52:38;;;;;;;40.60;38.60;;;28.60;54.40;;;;;;5000876;28;20469;-66
2022/08/25 10:55:13;;;;;;;37.83;35.80;;;28.70;54.10;;;;;;4997370;28;20461;-69
2022/08/25 10:57:59;;;;;;;52.00;49.20;;;28.70;54.10;;;;;;4996384;28;20504;-68
2022/08/25 11:00:38;;;;;;;41.70;39.70;;;28.80;54.30;;;;;;4998944;28;20465;-67
2022/08/25 11:03:18;;;;;;;36.10;34.20;;;29.00;53.40;;;;;;5003067;28;20457;-68
2022/08/25 11:05:49;;;;;;;42.83;40.83;;;29.00;53.20;;;;;;5000167;28;20465;-69
2022/08/25 11:08:22;;;;;;;46.50;44.20;;;29.20;52.30;;;;;;4994825;28;20465;-71
2022/08/25 11:10:53;;;;;;;41.77;39.73;;;29.30;52.20;;;;;;5004832;28;20477;-68
2022/08/25 11:13:31;;;;;;;39.00;37.00;;;29.50;51.80;;;;;;4999780;28;20485;-68
2022/08/25 11:16:03;;;;;;;46.03;43.80;;;29.60;51.50;;;;;;4999601;28;20472;-67
2022/08/25 11:18:32;;;;;;;59.80;56.90;;;29.80;51.00;;;;;;4999979;28;20477;-68
2022/08/25 11:21:07;;;;;;;51.67;49.17;;;30.00;50.50;;;;;;5000013;28;20564;-68
2022/08/25 11:23:38;;;;;;;48.53;46.10;;;30.10;50.10;;;;;;4994117;28;20462;-67
2022/08/25 11:26:10;;;;;;;45.60;43.47;;;30.20;49.60;;;;;;5003902;28;20479;-67
2022/08/25 11:28:50;;;;;;;36.73;35.03;;;30.30;49.60;;;;;;4994668;28;20825;-68
2022/08/25 11:31:19;;;;;;;42.60;40.63;;;30.30;49.80;;;;;;4997335;28;20504;-73
2022/08/25 11:33:49;;;;;;;37.10;35.40;;;30.40;48.80;;;;;;4997052;28;20472;-70
2022/08/25 11:36:25;;;;;;;54.40;51.80;;;30.50;47.80;;;;;;5008895;28;20547;-68
2022/08/25 11:39:01;;;;;;;39.53;37.57;;;30.60;48.70;;;;;;4999164;28;20493;-69
2022/08/25 11:41:37;;;;;;;43.50;41.50;;;30.60;49.10;;;;;;5002148;28;20599;-68
2022/08/25 11:44:32;;;;;;;41.00;39.00;;;30.70;49.20;;;;;;5000714;28;20457;-69
2022/08/25 11:47:16;;;;;;;51.57;49.10;;;31.00;48.90;;;;;;5002161;28;20457;-68
2022/08/25 11:49:52;;;;;;;48.80;46.50;;;31.10;48.30;;;;;;5001860;28;21008;-67
2022/08/25 11:52:48;;;;;;;48.97;46.63;;;31.20;47.60;;;;;;4997666;28;20599;-69
2022/08/25 11:55:18;;;;;;;43.53;41.33;;;30.50;47.00;;;;;;5000556;28;20465;-70
2022/08/25 11:57:48;;;;;;;44.03;41.90;;;30.10;48.50;;;;;;4997585;28;20481;-71
2022/08/25 12:00:36;;;;;;;41.73;39.83;;;30.20;48.60;;;;;;5013265;28;20812;-69
2022/08/25 12:03:42;;;;;;;43.17;41.17;;;30.40;47.80;;;;;;4999021;28;20457;-69
2022/08/25 12:06:21;;;;;;;53.43;50.73;;;30.60;47.30;;;;;;4990719;28;20514;-70
2022/08/25 12:08:54;;;;;;;37.47;35.57;;;30.50;48.00;;;;;;4986368;28;20461;-70
2022/08/25 12:11:53;;;;;;;57.20;54.50;;;30.50;48.00;;;;;;4987135;28;20505;-72
2022/08/25 12:14:42;;;;;;;57.67;54.97;;;30.40;47.10;;;;;;4924973;28;20462;-71
2022/08/25 12:17:22;;;;;;;45.20;43.00;;;30.40;47.50;;;;;;4983373;28;20489;-71
2022/08/25 12:19:54;;;;;;;56.70;53.83;;;30.60;47.90;;;;;;4990392;28;20485;-71
2022/08/25 12:22:50;;;;;;;45.47;42.97;;;30.70;48.20;;;;;;4986263;28;20571;-71
2022/08/25 12:25:52;;;;;;;44.57;42.43;;;30.80;48.90;;;;;;4989869;28;21018;-73
2022/08/25 12:28:46;;;;;;;43.80;41.80;;;30.80;48.00;;;;;;4990657;28;20491;-72
2022/08/25 12:31:25;;;;;;;60.47;57.63;;;30.90;47.90;;;;;;4988407;28;20874;-72
2022/08/25 12:34:09;;;;;;;62.00;59.00;;;30.80;48.30;;;;;;4989134;28;20827;-72
2022/08/25 12:36:36;;;;;;;42.20;39.93;;;30.80;47.80;;;;;;4992148;28;20464;-72
2022/08/25 12:39:30;;;;;;;63.37;60.23;;;30.70;49.30;;;;;;4990288;28;20491;-73
2022/08/25 12:42:02;;;;;;;51.77;49.43;;;30.70;48.90;;;;;;4985335;28;20489;-68
2022/08/25 12:44:41;;;;;;;45.03;42.83;;;30.80;48.00;;;;;;4990426;28;20457;-68
2022/08/25 12:47:26;;;;;;;56.43;53.67;;;30.90;49.00;;;;;;4991406;28;20465;-68
2022/08/25 12:49:54;;;;;;;55.80;53.07;;;30.90;49.20;;;;;;4991241;28;20571;-68
2022/08/25 12:52:23;;;;;;;49.70;47.30;;;31.00;49.20;;;;;;4988076;28;20476;-67
2022/08/25 12:54:57;;;;;;;54.67;52.00;;;31.00;48.50;;;;;;4986234;28;20465;-68
2022/08/25 12:57:40;;;;;;;53.70;51.10;;;31.00;47.80;;;;;;4990776;28;20464;-68